sensor_id;sensor_type;location;lat;lon;timestamp;pressure;altitude;pressure_sealevel;temperature;humidity
84143;BME280;74260;50.772;7.730;2023-12-28T00:00:21;98408.47;;;8.92;65.41
84143;BME280;74260;50.772;7.730;2023-12-28T00:00:52;98409.28;;;8.91;65.58
84143;BME280;74260;50.772;7.730;2023-12-28T00:01:22;98408.47;;;8.92;65.53
84143;BME280;74260;50.772;7.730;2023-12-28T00:01:53;98408.34;;;8.91;65.65
84143;BME280;74260;50.772;7.730;2023-12-28T00:02:23;98398.50;;;8.95;64.50
84143;BME280;74260;50.772;7.730;2023-12-28T00:02:53;98403.59;;;8.85;66.22
84143;BME280;74260;50.772;7.730;2023-12-28T00:03:26;98411.47;;;8.87;65.41
84143;BME280;74260;50.772;7.730;2023-12-28T00:03:57;98408.47;;;8.92;65.24
84143;BME280;74260;50.772;7.730;2023-12-28T00:04:27;98413.75;;;8.94;64.36
84143;BME280;74260;50.772;7.730;2023-12-28T00:04:58;98413.75;;;8.94;64.99
84143;BME280;74260;50.772;7.730;2023-12-28T00:05:28;98404.00;;;8.90;65.56
84143;BME280;74260;50.772;7.730;2023-12-28T00:05:59;98410.56;;;8.96;64.16
84143;BME280;74260;50.772;7.730;2023-12-28T00:06:29;98413.50;;;9.01;64.60
84143;BME280;74260;50.772;7.730;2023-12-28T00:07:01;98406.03;;;8.94;64.91
84143;BME280;74260;50.772;7.730;2023-12-28T00:07:32;98405.66;;;8.89;65.35
84143;BME280;74260;50.772;7.730;2023-12-28T00:08:02;98416.84;;;8.90;64.98
84143;BME280;74260;50.772;7.730;2023-12-28T00:08:32;98427.00;;;8.88;66.72
84143;BME280;74260;50.772;7.730;2023-12-28T00:09:03;98421.59;;;8.85;65.57
84143;BME280;74260;50.772;7.730;2023-12-28T00:09:34;98421.34;;;8.82;66.33
84143;BME280;74260;50.772;7.730;2023-12-28T00:10:04;98437.66;;;8.83;66.15
84143;BME280;74260;50.772;7.730;2023-12-28T00:10:35;98433.44;;;8.83;65.90
84143;BME280;74260;50.772;7.730;2023-12-28T00:11:07;98430.88;;;8.83;65.87
84143;BME280;74260;50.772;7.730;2023-12-28T00:11:38;98432.28;;;8.80;67.33
84143;BME280;74260;50.772;7.730;2023-12-28T00:12:09;98433.41;;;8.73;68.25
84143;BME280;74260;50.772;7.730;2023-12-28T00:12:40;98435.97;;;8.73;68.11
84143;BME280;74260;50.772;7.730;2023-12-28T00:13:10;98442.38;;;8.68;70.58
84143;BME280;74260;50.772;7.730;2023-12-28T00:13:43;98444.19;;;8.69;69.16
84143;BME280;74260;50.772;7.730;2023-12-28T00:14:14;98452.78;;;8.60;70.60
84143;BME280;74260;50.772;7.730;2023-12-28T00:14:45;98454.69;;;8.52;70.55
84143;BME280;74260;50.772;7.730;2023-12-28T00:15:15;98456.50;;;8.53;72.20
84143;BME280;74260;50.772;7.730;2023-12-28T00:15:45;98459.78;;;8.42;73.02
84143;BME280;74260;50.772;7.730;2023-12-28T00:16:18;98458.22;;;8.34;73.59
84143;BME280;74260;50.772;7.730;2023-12-28T00:16:48;98460.00;;;8.25;76.09
84143;BME280;74260;50.772;7.730;2023-12-28T00:17:18;98463.03;;;8.21;74.05
84143;BME280;74260;50.772;7.730;2023-12-28T00:17:49;98464.69;;;8.20;75.62
84143;BME280;74260;50.772;7.730;2023-12-28T00:18:19;98469.03;;;8.11;75.53
84143;BME280;74260;50.772;7.730;2023-12-28T00:18:49;98472.09;;;8.07;76.45
84143;BME280;74260;50.772;7.730;2023-12-28T00:19:20;98471.81;;;8.04;76.45
84143;BME280;74260;50.772;7.730;2023-12-28T00:19:51;98471.91;;;7.96;78.01
84143;BME280;74260;50.772;7.730;2023-12-28T00:20:23;98480.59;;;7.88;80.07
84143;BME280;74260;50.772;7.730;2023-12-28T00:20:56;98478.25;;;7.81;80.69
84143;BME280;74260;50.772;7.730;2023-12-28T00:21:27;98462.81;;;7.71;81.11
84143;BME280;74260;50.772;7.730;2023-12-28T00:21:58;98469.47;;;7.69;81.61
84143;BME280;74260;50.772;7.730;2023-12-28T00:22:28;98468.88;;;7.63;81.29
84143;BME280;74260;50.772;7.730;2023-12-28T00:22:58;98474.31;;;7.66;80.58
84143;BME280;74260;50.772;7.730;2023-12-28T00:23:29;98468.41;;;7.67;79.51
84143;BME280;74260;50.772;7.730;2023-12-28T00:23:59;98461.38;;;7.64;79.67
84143;BME280;74260;50.772;7.730;2023-12-28T00:24:30;98462.53;;;7.68;78.98
84143;BME280;74260;50.772;7.730;2023-12-28T00:25:00;98459.06;;;7.67;80.47
84143;BME280;74260;50.772;7.730;2023-12-28T00:25:30;98454.41;;;7.63;79.27
84143;BME280;74260;50.772;7.730;2023-12-28T00:26:01;98454.69;;;7.66;78.60
84143;BME280;74260;50.772;7.730;2023-12-28T00:26:31;98455.94;;;7.61;79.98
84143;BME280;74260;50.772;7.730;2023-12-28T00:27:02;98449.19;;;7.72;77.53
84143;BME280;74260;50.772;7.730;2023-12-28T00:27:33;98452.69;;;7.72;78.56
84143;BME280;74260;50.772;7.730;2023-12-28T00:28:07;98445.97;;;7.64;80.75
84143;BME280;74260;50.772;7.730;2023-12-28T00:28:38;98447.75;;;7.65;79.20
84143;BME280;74260;50.772;7.730;2023-12-28T00:29:08;98433.00;;;7.63;79.09
84143;BME280;74260;50.772;7.730;2023-12-28T00:29:38;98446.84;;;7.65;78.13
84143;BME280;74260;50.772;7.730;2023-12-28T00:30:09;98450.72;;;7.70;79.22
84143;BME280;74260;50.772;7.730;2023-12-28T00:30:39;98457.59;;;7.79;77.18
84143;BME280;74260;50.772;7.730;2023-12-28T00:31:10;98455.16;;;7.81;76.89
84143;BME280;74260;50.772;7.730;2023-12-28T00:31:40;98461.53;;;7.76;79.08
84143;BME280;74260;50.772;7.730;2023-12-28T00:32:10;98467.84;;;7.79;77.57
84143;BME280;74260;50.772;7.730;2023-12-28T00:32:41;98465.56;;;7.82;78.35
84143;BME280;74260;50.772;7.730;2023-12-28T00:33:14;98466.47;;;7.83;77.34
84143;BME280;74260;50.772;7.730;2023-12-28T00:33:44;98479.03;;;7.80;78.74
84143;BME280;74260;50.772;7.730;2023-12-28T00:34:14;98472.06;;;7.79;77.98
84143;BME280;74260;50.772;7.730;2023-12-28T00:34:45;98479.75;;;7.79;78.27
84143;BME280;74260;50.772;7.730;2023-12-28T00:35:15;98474.09;;;7.73;78.92
84143;BME280;74260;50.772;7.730;2023-12-28T00:35:46;98475.50;;;7.69;80.87
84143;BME280;74260;50.772;7.730;2023-12-28T00:36:17;98484.97;;;7.70;79.47
84143;BME280;74260;50.772;7.730;2023-12-28T00:36:48;98481.38;;;7.68;80.28
84143;BME280;74260;50.772;7.730;2023-12-28T00:37:18;98486.69;;;7.61;81.72
84143;BME280;74260;50.772;7.730;2023-12-28T00:37:48;98487.97;;;7.56;82.91
84143;BME280;74260;50.772;7.730;2023-12-28T00:38:19;98492.47;;;7.59;81.58
84143;BME280;74260;50.772;7.730;2023-12-28T00:38:49;98485.00;;;7.52;80.23
84143;BME280;74260;50.772;7.730;2023-12-28T00:39:19;98490.13;;;7.52;81.01
84143;BME280;74260;50.772;7.730;2023-12-28T00:39:50;98496.00;;;7.51;82.39
84143;BME280;74260;50.772;7.730;2023-12-28T00:40:20;98500.38;;;7.52;81.96
84143;BME280;74260;50.772;7.730;2023-12-28T00:40:52;98506.09;;;7.49;82.52
84143;BME280;74260;50.772;7.730;2023-12-28T00:41:22;98507.63;;;7.47;83.44
84143;BME280;74260;50.772;7.730;2023-12-28T00:41:52;98503.41;;;7.48;82.55
84143;BME280;74260;50.772;7.730;2023-12-28T00:42:23;98515.56;;;7.59;81.66
84143;BME280;74260;50.772;7.730;2023-12-28T00:42:53;98504.78;;;7.63;81.56
84143;BME280;74260;50.772;7.730;2023-12-28T00:43:23;98506.34;;;7.61;81.15
84143;BME280;74260;50.772;7.730;2023-12-28T00:43:54;98504.78;;;7.63;79.68
84143;BME280;74260;50.772;7.730;2023-12-28T00:44:24;98509.19;;;7.64;80.58
84143;BME280;74260;50.772;7.730;2023-12-28T00:44:55;98509.66;;;7.60;81.49
84143;BME280;74260;50.772;7.730;2023-12-28T00:45:25;98510.44;;;7.59;80.48
84143;BME280;74260;50.772;7.730;2023-12-28T00:45:56;98514.56;;;7.67;80.09
84143;BME280;74260;50.772;7.730;2023-12-28T00:46:26;98516.09;;;7.65;80.61
84143;BME280;74260;50.772;7.730;2023-12-28T00:46:56;98511.16;;;7.58;82.61
84143;BME280;74260;50.772;7.730;2023-12-28T00:47:28;98517.84;;;7.56;82.24
84143;BME280;74260;50.772;7.730;2023-12-28T00:47:58;98514.25;;;7.54;83.11
84143;BME280;74260;50.772;7.730;2023-12-28T00:48:29;98516.50;;;7.51;84.16
84143;BME280;74260;50.772;7.730;2023-12-28T00:48:59;98523.00;;;7.47;83.84
84143;BME280;74260;50.772;7.730;2023-12-28T00:49:31;98523.38;;;7.42;84.71
84143;BME280;74260;50.772;7.730;2023-12-28T00:50:02;98527.13;;;7.45;84.49
84143;BME280;74260;50.772;7.730;2023-12-28T00:50:32;98528.50;;;7.42;83.37
84143;BME280;74260;50.772;7.730;2023-12-28T00:51:03;98523.66;;;7.45;84.13
84143;BME280;74260;50.772;7.730;2023-12-28T00:51:33;98525.75;;;7.49;82.34
84143;BME280;74260;50.772;7.730;2023-12-28T00:52:04;98540.22;;;7.48;82.80
84143;BME280;74260;50.772;7.730;2023-12-28T00:52:35;98529.97;;;7.48;82.69
84143;BME280;74260;50.772;7.730;2023-12-28T00:53:05;98530.56;;;7.46;83.92
84143;BME280;74260;50.772;7.730;2023-12-28T00:53:35;98531.19;;;7.43;85.19
84143;BME280;74260;50.772;7.730;2023-12-28T00:54:06;98532.72;;;7.41;84.31
84143;BME280;74260;50.772;7.730;2023-12-28T00:54:36;98536.66;;;7.38;84.28
84143;BME280;74260;50.772;7.730;2023-12-28T00:55:10;98526.91;;;7.52;81.80
84143;BME280;74260;50.772;7.730;2023-12-28T00:55:40;98537.19;;;7.52;82.82
84143;BME280;74260;50.772;7.730;2023-12-28T00:56:11;98533.44;;;7.49;83.63
84143;BME280;74260;50.772;7.730;2023-12-28T00:56:41;98533.13;;;7.46;84.07
84143;BME280;74260;50.772;7.730;2023-12-28T00:57:13;98533.00;;;7.44;83.64
84143;BME280;74260;50.772;7.730;2023-12-28T00:57:44;98540.28;;;7.40;85.74
84143;BME280;74260;50.772;7.730;2023-12-28T00:58:14;98538.94;;;7.35;84.59
84143;BME280;74260;50.772;7.730;2023-12-28T00:58:45;98548.56;;;7.37;84.62
84143;BME280;74260;50.772;7.730;2023-12-28T00:59:16;98548.91;;;7.32;85.09
84143;BME280;74260;50.772;7.730;2023-12-28T00:59:47;98548.69;;;7.39;84.80
84143;BME280;74260;50.772;7.730;2023-12-28T01:00:17;98548.44;;;7.36;85.53
84143;BME280;74260;50.772;7.730;2023-12-28T01:00:49;98553.28;;;7.33;85.22
84143;BME280;74260;50.772;7.730;2023-12-28T01:01:23;98552.69;;;7.27;86.22
84143;BME280;74260;50.772;7.730;2023-12-28T01:01:53;98548.81;;;7.22;86.26
84143;BME280;74260;50.772;7.730;2023-12-28T01:02:24;98555.63;;;7.21;86.82
84143;BME280;74260;50.772;7.730;2023-12-28T01:02:54;98559.91;;;7.31;84.68
84143;BME280;74260;50.772;7.730;2023-12-28T01:03:24;98551.19;;;7.29;85.64
84143;BME280;74260;50.772;7.730;2023-12-28T01:03:55;98556.44;;;7.30;85.56
84143;BME280;74260;50.772;7.730;2023-12-28T01:04:25;98559.66;;;7.28;86.81
84143;BME280;74260;50.772;7.730;2023-12-28T01:04:56;98555.13;;;7.25;87.36
84143;BME280;74260;50.772;7.730;2023-12-28T01:05:27;98551.25;;;7.20;87.07
84143;BME280;74260;50.772;7.730;2023-12-28T01:05:58;98550.06;;;7.17;88.05
84143;BME280;74260;50.772;7.730;2023-12-28T01:06:29;98560.81;;;7.13;88.17
84143;BME280;74260;50.772;7.730;2023-12-28T01:07:02;98562.31;;;7.11;87.68
84143;BME280;74260;50.772;7.730;2023-12-28T01:07:34;98559.44;;;7.07;87.68
84143;BME280;74260;50.772;7.730;2023-12-28T01:08:05;98564.88;;;7.11;88.35
84143;BME280;74260;50.772;7.730;2023-12-28T01:08:36;98557.03;;;7.09;88.50
84143;BME280;74260;50.772;7.730;2023-12-28T01:09:06;98561.69;;;7.13;88.60
84143;BME280;74260;50.772;7.730;2023-12-28T01:09:37;98561.69;;;7.13;88.36
84143;BME280;74260;50.772;7.730;2023-12-28T01:10:08;98567.38;;;7.19;87.30
84143;BME280;74260;50.772;7.730;2023-12-28T01:10:38;98562.13;;;7.18;86.73
84143;BME280;74260;50.772;7.730;2023-12-28T01:11:10;98569.44;;;7.23;86.59
84143;BME280;74260;50.772;7.730;2023-12-28T01:11:41;98570.81;;;7.20;88.28
84143;BME280;74260;50.772;7.730;2023-12-28T01:12:13;98568.75;;;7.16;89.04
84143;BME280;74260;50.772;7.730;2023-12-28T01:12:43;98570.56;;;7.17;89.26
84143;BME280;74260;50.772;7.730;2023-12-28T01:13:13;98564.88;;;7.11;88.89
84143;BME280;74260;50.772;7.730;2023-12-28T01:13:44;98566.53;;;7.10;89.28
84143;BME280;74260;50.772;7.730;2023-12-28T01:14:14;98576.16;;;7.13;88.74
84143;BME280;74260;50.772;7.730;2023-12-28T01:14:44;98565.59;;;7.10;90.03
84143;BME280;74260;50.772;7.730;2023-12-28T01:15:15;98566.06;;;7.14;89.07
84143;BME280;74260;50.772;7.730;2023-12-28T01:15:47;98563.91;;;7.19;89.07
84143;BME280;74260;50.772;7.730;2023-12-28T01:16:17;98567.56;;;7.12;89.58
84143;BME280;74260;50.772;7.730;2023-12-28T01:16:49;98567.91;;;7.07;90.12
84143;BME280;74260;50.772;7.730;2023-12-28T01:17:20;98573.63;;;7.04;89.27
84143;BME280;74260;50.772;7.730;2023-12-28T01:17:52;98563.38;;;7.04;89.37
84143;BME280;74260;50.772;7.730;2023-12-28T01:18:23;98559.44;;;7.07;89.11
84143;BME280;74260;50.772;7.730;2023-12-28T01:18:53;98565.06;;;7.03;90.20
84143;BME280;74260;50.772;7.730;2023-12-28T01:19:24;98564.56;;;7.07;89.14
84143;BME280;74260;50.772;7.730;2023-12-28T01:19:54;98571.06;;;7.04;89.57
84143;BME280;74260;50.772;7.730;2023-12-28T01:20:25;98566.84;;;7.04;90.19
84143;BME280;74260;50.772;7.730;2023-12-28T01:20:55;98562.50;;;7.03;89.86
84143;BME280;74260;50.772;7.730;2023-12-28T01:21:26;98561.44;;;7.01;90.31
84143;BME280;74260;50.772;7.730;2023-12-28T01:21:58;98567.75;;;7.05;89.66
84143;BME280;74260;50.772;7.730;2023-12-28T01:22:28;98564.25;;;7.13;87.96
84143;BME280;74260;50.772;7.730;2023-12-28T01:22:59;98568.31;;;7.11;88.73
84143;BME280;74260;50.772;7.730;2023-12-28T01:23:30;98572.41;;;7.09;88.73
84143;BME280;74260;50.772;7.730;2023-12-28T01:24:00;98576.00;;;7.11;87.78
84143;BME280;74260;50.772;7.730;2023-12-28T01:24:30;98572.41;;;7.09;89.28
84143;BME280;74260;50.772;7.730;2023-12-28T01:25:01;98588.38;;;7.07;89.09
84143;BME280;74260;50.772;7.730;2023-12-28T01:25:31;98573.78;;;7.06;89.21
84143;BME280;74260;50.772;7.730;2023-12-28T01:26:01;98573.28;;;7.10;88.14
84143;BME280;74260;50.772;7.730;2023-12-28T01:26:32;98574.81;;;7.07;88.70
84143;BME280;74260;50.772;7.730;2023-12-28T01:27:04;98571.31;;;7.16;87.84
84143;BME280;74260;50.772;7.730;2023-12-28T01:27:35;98579.28;;;7.19;87.85
84143;BME280;74260;50.772;7.730;2023-12-28T01:28:05;98573.38;;;7.20;88.19
84143;BME280;74260;50.772;7.730;2023-12-28T01:28:35;98568.06;;;7.27;88.11
84143;BME280;74260;50.772;7.730;2023-12-28T01:29:08;98566.00;;;7.23;88.31
84143;BME280;74260;50.772;7.730;2023-12-28T01:29:39;98561.34;;;7.19;88.67
84143;BME280;74260;50.772;7.730;2023-12-28T01:30:10;98569.66;;;7.16;89.29
84143;BME280;74260;50.772;7.730;2023-12-28T01:30:41;98572.97;;;7.15;89.28
84143;BME280;74260;50.772;7.730;2023-12-28T01:31:11;98576.44;;;7.16;88.87
84143;BME280;74260;50.772;7.730;2023-12-28T01:31:43;98581.84;;;7.19;87.82
84143;BME280;74260;50.772;7.730;2023-12-28T01:32:13;98587.06;;;7.29;87.10
84143;BME280;74260;50.772;7.730;2023-12-28T01:32:43;98583.31;;;7.25;87.30
84143;BME280;74260;50.772;7.730;2023-12-28T01:33:16;98583.19;;;7.24;88.96
84143;BME280;74260;50.772;7.730;2023-12-28T01:33:47;98588.03;;;7.21;88.96
84143;BME280;74260;50.772;7.730;2023-12-28T01:34:17;98587.88;;;7.19;88.25
84143;BME280;74260;50.772;7.730;2023-12-28T01:34:49;98581.06;;;7.20;88.19
84143;BME280;74260;50.772;7.730;2023-12-28T01:35:19;98574.16;;;7.19;89.20
84143;BME280;74260;50.772;7.730;2023-12-28T01:35:50;98577.19;;;7.15;89.09
84143;BME280;74260;50.772;7.730;2023-12-28T01:36:21;98567.72;;;7.14;89.36
84143;BME280;74260;50.772;7.730;2023-12-28T01:36:52;98572.69;;;7.12;89.21
84143;BME280;74260;50.772;7.730;2023-12-28T01:37:22;98573.56;;;7.21;88.66
84143;BME280;74260;50.772;7.730;2023-12-28T01:37:53;98571.41;;;7.26;87.83
84143;BME280;74260;50.772;7.730;2023-12-28T01:38:24;98584.22;;;7.26;88.30
84143;BME280;74260;50.772;7.730;2023-12-28T01:38:54;98579.44;;;7.20;89.08
84143;BME280;74260;50.772;7.730;2023-12-28T01:39:26;98584.09;;;7.24;88.93
84143;BME280;74260;50.772;7.730;2023-12-28T01:39:56;98592.38;;;7.22;89.02
84143;BME280;74260;50.772;7.730;2023-12-28T01:40:26;98588.34;;;7.15;89.28
84143;BME280;74260;50.772;7.730;2023-12-28T01:40:57;98583.34;;;7.17;88.69
84143;BME280;74260;50.772;7.730;2023-12-28T01:41:27;98588.31;;;7.24;88.09
84143;BME280;74260;50.772;7.730;2023-12-28T01:41:57;98585.00;;;7.25;88.52
84143;BME280;74260;50.772;7.730;2023-12-28T01:42:28;98579.56;;;7.22;87.89
84143;BME280;74260;50.772;7.730;2023-12-28T01:43:01;98585.47;;;7.21;88.37
84143;BME280;74260;50.772;7.730;2023-12-28T01:43:31;98586.19;;;7.20;88.78
84143;BME280;74260;50.772;7.730;2023-12-28T01:44:02;98586.84;;;7.17;88.37
84143;BME280;74260;50.772;7.730;2023-12-28T01:44:33;98588.50;;;7.17;88.19
84143;BME280;74260;50.772;7.730;2023-12-28T01:45:04;98593.63;;;7.17;88.27
84143;BME280;74260;50.772;7.730;2023-12-28T01:45:35;98581.84;;;7.19;88.07
84143;BME280;74260;50.772;7.730;2023-12-28T01:46:06;98590.31;;;7.18;88.19
84143;BME280;74260;50.772;7.730;2023-12-28T01:46:37;98599.78;;;7.19;88.46
84143;BME280;74260;50.772;7.730;2023-12-28T01:47:08;98596.16;;;7.17;88.07
84143;BME280;74260;50.772;7.730;2023-12-28T01:47:39;98582.25;;;7.23;88.30
84143;BME280;74260;50.772;7.730;2023-12-28T01:48:10;98596.16;;;7.17;88.93
84143;BME280;74260;50.772;7.730;2023-12-28T01:48:42;98589.13;;;7.14;89.48
84143;BME280;74260;50.772;7.730;2023-12-28T01:49:14;98583.84;;;7.13;89.40
84143;BME280;74260;50.772;7.730;2023-12-28T01:49:44;98582.03;;;7.12;88.88
84143;BME280;74260;50.772;7.730;2023-12-28T01:50:15;98582.31;;;7.15;88.65
84143;BME280;74260;50.772;7.730;2023-12-28T01:50:45;98581.44;;;7.14;90.09
84143;BME280;74260;50.772;7.730;2023-12-28T01:51:16;98587.44;;;7.15;90.33
84143;BME280;74260;50.772;7.730;2023-12-28T01:51:47;98585.22;;;7.09;89.29
84143;BME280;74260;50.772;7.730;2023-12-28T01:52:19;98580.84;;;7.08;89.95
84143;BME280;74260;50.772;7.730;2023-12-28T01:52:50;98588.03;;;7.21;89.26
84143;BME280;74260;50.772;7.730;2023-12-28T01:53:22;98579.56;;;7.22;88.55
84143;BME280;74260;50.772;7.730;2023-12-28T01:53:52;98579.56;;;7.22;88.47
84143;BME280;74260;50.772;7.730;2023-12-28T01:54:24;98581.38;;;7.23;89.04
84143;BME280;74260;50.772;7.730;2023-12-28T01:54:55;98586.38;;;7.21;88.84
84143;BME280;74260;50.772;7.730;2023-12-28T01:55:26;98583.63;;;7.20;89.23
84143;BME280;74260;50.772;7.730;2023-12-28T01:55:57;98586.19;;;7.20;89.18
84143;BME280;74260;50.772;7.730;2023-12-28T01:56:30;98576.13;;;7.21;89.19
84143;BME280;74260;50.772;7.730;2023-12-28T01:57:01;98582.47;;;7.16;90.01
84143;BME280;74260;50.772;7.730;2023-12-28T01:57:33;98595.44;;;7.18;89.50
84143;BME280;74260;50.772;7.730;2023-12-28T01:58:03;98590.50;;;7.11;89.28
84143;BME280;74260;50.772;7.730;2023-12-28T01:58:35;98594.38;;;7.16;89.98
84143;BME280;74260;50.772;7.730;2023-12-28T01:59:05;98596.81;;;7.14;90.01
84143;BME280;74260;50.772;7.730;2023-12-28T01:59:37;98604.19;;;7.11;90.48
84143;BME280;74260;50.772;7.730;2023-12-28T02:00:07;98597.13;;;7.09;90.54
84143;BME280;74260;50.772;7.730;2023-12-28T02:00:39;98607.38;;;7.09;91.03
84143;BME280;74260;50.772;7.730;2023-12-28T02:01:10;98600.16;;;7.04;90.88
84143;BME280;74260;50.772;7.730;2023-12-28T02:01:41;98589.34;;;6.98;91.61
84143;BME280;74260;50.772;7.730;2023-12-28T02:02:15;98596.53;;;7.02;91.65
84143;BME280;74260;50.772;7.730;2023-12-28T02:02:47;98590.53;;;7.02;90.55
84143;BME280;74260;50.772;7.730;2023-12-28T02:03:17;98593.22;;;7.03;91.07
84143;BME280;74260;50.772;7.730;2023-12-28T02:03:48;98601.66;;;7.02;91.09
84143;BME280;74260;50.772;7.730;2023-12-28T02:04:19;98598.34;;;7.03;90.71
84143;BME280;74260;50.772;7.730;2023-12-28T02:04:56;98594.56;;;7.09;90.35
84143;BME280;74260;50.772;7.730;2023-12-28T02:05:26;98610.31;;;7.22;88.63
84143;BME280;74260;50.772;7.730;2023-12-28T02:05:57;98602.16;;;7.26;88.73
84143;BME280;74260;50.772;7.730;2023-12-28T02:06:27;98600.19;;;7.23;88.16
84143;BME280;74260;50.772;7.730;2023-12-28T02:06:59;98610.63;;;7.25;89.07
84143;BME280;74260;50.772;7.730;2023-12-28T02:07:32;98593.56;;;7.25;89.24
84143;BME280;74260;50.772;7.730;2023-12-28T02:08:03;98594.63;;;7.27;89.61
84143;BME280;74260;50.772;7.730;2023-12-28T02:08:34;98592.19;;;7.29;88.70
84143;BME280;74260;50.772;7.730;2023-12-28T02:09:04;98591.91;;;7.26;89.53
84143;BME280;74260;50.772;7.730;2023-12-28T02:09:34;98590.13;;;7.25;89.64
84143;BME280;74260;50.772;7.730;2023-12-28T02:10:07;98596.75;;;7.23;89.28
84143;BME280;74260;50.772;7.730;2023-12-28T02:10:38;98596.75;;;7.23;89.25
84143;BME280;74260;50.772;7.730;2023-12-28T02:11:10;98590.41;;;7.28;88.76
84143;BME280;74260;50.772;7.730;2023-12-28T02:11:42;98596.06;;;7.34;87.88
84143;BME280;74260;50.772;7.730;2023-12-28T02:12:12;98589.72;;;7.39;87.26
84143;BME280;74260;50.772;7.730;2023-12-28T02:12:43;98590.50;;;7.38;87.31
84143;BME280;74260;50.772;7.730;2023-12-28T02:13:14;98594.25;;;7.41;87.34
84143;BME280;74260;50.772;7.730;2023-12-28T02:13:45;98596.22;;;7.35;87.89
84143;BME280;74260;50.772;7.730;2023-12-28T02:14:15;98592.00;;;7.36;88.36
84143;BME280;74260;50.772;7.730;2023-12-28T02:14:46;98598.13;;;7.46;86.73
84143;BME280;74260;50.772;7.730;2023-12-28T02:15:16;98598.25;;;7.48;87.06
84143;BME280;74260;50.772;7.730;2023-12-28T02:15:52;98595.44;;;7.45;87.32
84143;BME280;74260;50.772;7.730;2023-12-28T02:16:32;98593.13;;;7.48;86.10
84143;BME280;74260;50.772;7.730;2023-12-28T02:17:16;98596.63;;;7.48;86.72
84143;BME280;74260;50.772;7.730;2023-12-28T02:18:02;98593.63;;;7.44;87.28
84143;BME280;74260;50.772;7.730;2023-12-28T02:18:42;98599.03;;;7.47;87.49
84143;BME280;74260;50.772;7.730;2023-12-28T02:19:26;98586.69;;;7.43;86.99
84143;BME280;74260;50.772;7.730;2023-12-28T02:20:01;98591.34;;;7.47;87.09
84143;BME280;74260;50.772;7.730;2023-12-28T02:20:36;98588.78;;;7.47;86.60
84143;BME280;74260;50.772;7.730;2023-12-28T02:21:10;98591.47;;;7.48;86.94
84143;BME280;74260;50.772;7.730;2023-12-28T02:21:42;98597.53;;;7.49;86.47
84143;BME280;74260;50.772;7.730;2023-12-28T02:22:14;98592.94;;;7.55;85.50
84143;BME280;74260;50.772;7.730;2023-12-28T02:22:46;98591.91;;;7.53;86.13
84143;BME280;74260;50.772;7.730;2023-12-28T02:23:17;98596.56;;;7.57;85.41
84143;BME280;74260;50.772;7.730;2023-12-28T02:23:48;98590.78;;;7.59;84.65
84143;BME280;74260;50.772;7.730;2023-12-28T02:24:21;98594.13;;;7.58;86.09
84143;BME280;74260;50.772;7.730;2023-12-28T02:25:10;98593.53;;;7.61;85.36
84143;BME280;74260;50.772;7.730;2023-12-28T02:25:43;98586.09;;;7.64;84.86
84143;BME280;74260;50.772;7.730;2023-12-28T02:26:17;98582.63;;;7.63;85.09
84143;BME280;74260;50.772;7.730;2023-12-28T02:26:47;98579.00;;;7.61;85.44
84143;BME280;74260;50.772;7.730;2023-12-28T02:27:18;98581.16;;;7.57;86.21
84143;BME280;74260;50.772;7.730;2023-12-28T02:27:49;98569.94;;;7.65;84.66
84143;BME280;74260;50.772;7.730;2023-12-28T02:28:19;98582.63;;;7.63;85.13
84143;BME280;74260;50.772;7.730;2023-12-28T02:28:50;98572.22;;;7.62;85.29
84143;BME280;74260;50.772;7.730;2023-12-28T02:29:20;98579.00;;;7.61;85.65
84143;BME280;74260;50.772;7.730;2023-12-28T02:29:55;98569.13;;;7.56;86.36
84143;BME280;74260;50.772;7.730;2023-12-28T02:30:27;98573.56;;;7.67;84.84
84143;BME280;74260;50.772;7.730;2023-12-28T02:31:00;98572.44;;;7.73;84.15
84143;BME280;74260;50.772;7.730;2023-12-28T02:31:36;98565.13;;;7.68;85.26
84143;BME280;74260;50.772;7.730;2023-12-28T02:32:09;98575.13;;;7.75;84.86
84143;BME280;74260;50.772;7.730;2023-12-28T02:32:47;98577.03;;;7.86;83.42
84143;BME280;74260;50.772;7.730;2023-12-28T02:33:28;98575.25;;;7.85;83.56
84143;BME280;74260;50.772;7.730;2023-12-28T02:34:23;98577.50;;;7.82;83.73
84143;BME280;74260;50.772;7.730;2023-12-28T02:35:02;98590.31;;;7.82;84.90
84143;BME280;74260;50.772;7.730;2023-12-28T02:35:49;98598.81;;;7.81;84.11
84143;BME280;74260;50.772;7.730;2023-12-28T02:36:23;98593.88;;;7.92;83.56
84143;BME280;74260;50.772;7.730;2023-12-28T02:36:56;98589.38;;;7.90;83.55
84143;BME280;74260;50.772;7.730;2023-12-28T02:37:27;98590.91;;;7.88;84.06
84143;BME280;74260;50.772;7.730;2023-12-28T02:38:07;98610.09;;;7.83;84.72
84143;BME280;74260;50.772;7.730;2023-12-28T02:38:39;98594.44;;;7.80;85.22
84143;BME280;74260;50.772;7.730;2023-12-28T02:39:14;98600.75;;;7.83;84.34
84143;BME280;74260;50.772;7.730;2023-12-28T02:39:47;98604.97;;;7.83;84.16
84143;BME280;74260;50.772;7.730;2023-12-28T02:40:19;98602.41;;;7.83;84.70
84143;BME280;74260;50.772;7.730;2023-12-28T02:40:50;98589.72;;;7.84;84.60
84143;BME280;74260;50.772;7.730;2023-12-28T02:41:21;98580.06;;;7.82;84.31
84143;BME280;74260;50.772;7.730;2023-12-28T02:41:52;98579.31;;;7.83;84.46
84143;BME280;74260;50.772;7.730;2023-12-28T02:42:25;98576.50;;;7.80;85.33
84143;BME280;74260;50.772;7.730;2023-12-28T02:42:55;98579.38;;;7.93;83.71
84143;BME280;74260;50.772;7.730;2023-12-28T02:43:26;98588.47;;;7.89;84.52
84143;BME280;74260;50.772;7.730;2023-12-28T02:43:56;98577.72;;;7.93;84.46
84143;BME280;74260;50.772;7.730;2023-12-28T02:44:29;98581.69;;;7.90;84.87
84143;BME280;74260;50.772;7.730;2023-12-28T02:44:59;98577.31;;;7.89;84.57
84143;BME280;74260;50.772;7.730;2023-12-28T02:45:30;98577.03;;;7.86;85.08
84143;BME280;74260;50.772;7.730;2023-12-28T02:46:00;98571.63;;;7.83;85.42
84143;BME280;74260;50.772;7.730;2023-12-28T02:46:33;98580.91;;;7.91;83.87
84143;BME280;74260;50.772;7.730;2023-12-28T02:47:04;98584.31;;;8.00;84.20
84143;BME280;74260;50.772;7.730;2023-12-28T02:47:34;98586.88;;;8.00;84.49
84143;BME280;74260;50.772;7.730;2023-12-28T02:48:05;98597.16;;;8.00;85.01
84143;BME280;74260;50.772;7.730;2023-12-28T02:48:35;98593.06;;;8.02;84.68
84143;BME280;74260;50.772;7.730;2023-12-28T02:49:06;98590.34;;;8.00;84.45